Time,TemperatureF,DewpointF,PressureIn,WindDirection,WindDirectionDegrees,WindSpeedMPH,WindSpeedGustMPH,Humidity,HourlyPrecipIn,Conditions,Clouds,dailyrainin,SoftwareType,DateUTC
2013-02-01 00:00:00,32.2,21.0,30.37,NW,311,0.0,0.0,63,0.00,,,0.00,LWC V2.11 B50,2013-02-01 07:00:00,
2013-02-01 00:05:00,32.0,20.9,30.37,NW,311,0.0,0.0,63,0.00,,,0.00,LWC V2.11 B50,2013-02-01 07:05:00,
2013-02-01 00:10:00,31.8,21.0,30.37,NW,311,0.0,0.0,64,0.00,,,0.00,LWC V2.11 B50,2013-02-01 07:10:00,
2013-02-01 00:15:00,31.8,21.0,30.37,NW,311,0.0,0.0,64,0.00,,,0.00,LWC V2.11 B50,2013-02-01 07:15:00,
2013-02-01 00:20:00,32.0,21.2,30.36,NW,317,0.0,3.0,64,0.00,,,0.00,LWC V2.11 B50,2013-02-01 07:20:00,
2013-02-01 00:25:00,32.5,21.3,30.36,NW,325,0.0,1.0,63,0.00,,,0.00,LWC V2.11 B50,2013-02-01 07:25:00,
2013-02-01 00:30:00,32.7,21.5,30.36,NNW,346,0.0,1.0,63,0.00,,,0.00,LWC V2.11 B50,2013-02-01 07:30:00,
2013-02-01 00:35:00,33.1,21.5,30.36,NW,309,1.0,2.0,62,0.00,,,0.00,LWC V2.11 B50,2013-02-01 07:35:00,
2013-02-01 00:40:00,33.3,21.7,30.36,WNW,292,2.0,2.0,62,0.00,,,0.00,LWC V2.11 B50,2013-02-01 07:40:00,
2013-02-01 00:45:00,33.6,22.0,30.36,NW,311,0.0,3.0,62,0.00,,,0.00,LWC V2.11 B50,2013-02-01 07:45:00,
2013-02-01 00:50:00,33.5,21.5,30.36,NNE,22,0.0,2.0,61,0.00,,,0.00,LWC V2.11 B50,2013-02-01 07:50:00,
2013-02-01 00:55:00,33.2,21.2,30.36,NNW,340,0.0,0.0,61,0.00,,,0.00,LWC V2.11 B50,2013-02-01 07:55:00,
2013-02-01 01:00:00,32.8,21.2,30.36,NNW,336,0.0,1.0,62,0.00,,,0.00,LWC V2.11 B50,2013-02-01 08:00:00,
2013-02-01 01:05:00,32.6,21.0,30.36,NW,324,0.0,0.0,62,0.00,,,0.00,LWC V2.11 B50,2013-02-01 08:05:00,
2013-02-01 01:10:00,32.5,21.3,30.36,NW,325,0.0,0.0,63,0.00,,,0.00,LWC V2.11 B50,2013-02-01 08:10:00,
2013-02-01 01:15:00,32.3,21.1,30.36,NW,325,0.0,0.0,63,0.00,,,0.00,LWC V2.11 B50,2013-02-01 08:15:00,
2013-02-01 01:20:00,32.1,20.9,30.37,NW,325,0.0,0.0,63,0.00,,,0.00,LWC V2.11 B50,2013-02-01 08:20:00,
2013-02-01 01:25:00,31.7,20.2,30.36,NW,325,0.0,0.0,62,0.00,,,0.00,LWC V2.11 B50,2013-02-01 08:25:00,
2013-02-01 01:30:00,31.4,20.7,30.36,NW,321,0.0,3.0,64,0.00,,,0.00,LWC V2.11 B50,2013-02-01 08:30:00,
2013-02-01 01:35:00,31.5,20.7,30.37,NW,317,0.0,1.0,64,0.00,,,0.00,LWC V2.11 B50,2013-02-01 08:35:00,
2013-02-01 01:40:00,31.4,20.3,30.37,NW,311,0.0,0.0,63,0.00,,,0.00,LWC V2.11 B50,2013-02-01 08:40:00,
2013-02-01 01:45:00,31.1,20.0,30.37,NW,311,0.0,0.0,63,0.00,,,0.00,LWC V2.11 B50,2013-02-01 08:45:00,
2013-02-01 01:50:00,30.7,19.6,30.38,NW,311,0.0,0.0,63,0.00,,,0.00,LWC V2.11 B50,2013-02-01 08:50:00,
2013-02-01 01:55:00,30.6,19.5,30.38,NW,325,0.0,3.0,63,0.00,,,0.00,LWC V2.11 B50,2013-02-01 08:55:00,
2013-02-01 02:00:00,30.7,19.6,30.38,NW,317,0.0,1.0,63,0.00,,,0.00,LWC V2.11 B50,2013-02-01 09:00:00,
2013-02-01 02:05:00,31.0,19.9,30.38,NW,312,0.0,0.0,63,0.00,,,0.00,LWC V2.11 B50,2013-02-01 09:05:00,
2013-02-01 02:10:00,31.2,20.1,30.38,NW,304,0.0,2.0,63,0.00,,,0.00,LWC V2.11 B50,2013-02-01 09:10:00,
2013-02-01 02:15:00,31.4,19.9,30.38,NW,309,1.0,1.0,62,0.00,,,0.00,LWC V2.11 B50,2013-02-01 09:15:00,
2013-02-01 02:20:00,31.4,19.9,30.38,NW,309,0.0,0.0,62,0.00,,,0.00,LWC V2.11 B50,2013-02-01 09:20:00,
2013-02-01 02:25:00,31.2,19.7,30.39,NW,309,0.0,0.0,62,0.00,,,0.00,LWC V2.11 B50,2013-02-01 09:25:00,
2013-02-01 02:30:00,30.9,19.4,30.39,NW,309,0.0,0.0,62,0.00,,,0.00,LWC V2.11 B50,2013-02-01 09:30:00,
2013-02-01 02:35:00,30.5,19.1,30.39,NW,309,0.0,0.0,62,0.00,,,0.00,LWC V2.11 B50,2013-02-01 09:35:00,
2013-02-01 02:40:00,29.9,18.9,30.39,NW,309,0.0,0.0,63,0.00,,,0.00,LWC V2.11 B50,2013-02-01 09:40:00,
2013-02-01 02:45:00,29.5,18.5,30.39,NW,309,0.0,0.0,63,0.00,,,0.00,LWC V2.11 B50,2013-02-01 09:45:00,
2013-02-01 02:50:00,29.0,18.4,30.39,NW,309,0.0,0.0,64,0.00,,,0.00,LWC V2.11 B50,2013-02-01 09:50:00,
2013-02-01 02:55:00,28.5,18.3,30.39,NW,309,0.0,0.0,65,0.00,,,0.00,LWC V2.11 B50,2013-02-01 09:55:00,
2013-02-01 03:00:00,28.2,18.0,30.39,NW,309,0.0,0.0,65,0.00,,,0.00,LWC V2.11 B50,2013-02-01 10:00:00,
2013-02-01 03:05:00,27.9,17.7,30.39,NW,309,0.0,0.0,65,0.00,,,0.00,LWC V2.11 B50,2013-02-01 10:05:00,
2013-02-01 03:10:00,27.5,17.7,30.39,NW,309,0.0,0.0,66,0.00,,,0.00,LWC V2.11 B50,2013-02-01 10:10:00,
2013-02-01 03:15:00,27.1,17.6,30.39,NW,309,0.0,0.0,67,0.00,,,0.00,LWC V2.11 B50,2013-02-01 10:15:00,
2013-02-01 03:20:00,26.9,17.8,30.39,NW,309,0.0,0.0,68,0.00,,,0.00,LWC V2.11 B50,2013-02-01 10:20:00,
2013-02-01 03:25:00,26.6,17.5,30.38,NW,309,0.0,0.0,68,0.00,,,0.00,LWC V2.11 B50,2013-02-01 10:25:00,
2013-02-01 03:30:00,26.5,17.7,30.38,NW,309,0.0,0.0,69,0.00,,,0.00,LWC V2.11 B50,2013-02-01 10:30:00,
2013-02-01 03:35:00,26.4,17.6,30.38,NW,309,0.0,0.0,69,0.00,,,0.00,LWC V2.11 B50,2013-02-01 10:35:00,
2013-02-01 03:40:00,26.3,17.9,30.38,NW,309,0.0,0.0,70,0.00,,,0.00,LWC V2.11 B50,2013-02-01 10:40:00,
2013-02-01 03:45:00,26.2,17.8,30.38,NW,309,0.0,0.0,70,0.00,,,0.00,LWC V2.11 B50,2013-02-01 10:45:00,
2013-02-01 03:50:00,26.1,17.7,30.37,NW,309,0.0,0.0,70,0.00,,,0.00,LWC V2.11 B50,2013-02-01 10:50:00,
2013-02-01 03:55:00,26.2,18.1,30.37,NW,309,0.0,0.0,71,0.00,,,0.00,LWC V2.11 B50,2013-02-01 10:55:00,
2013-02-01 04:00:00,26.3,18.5,30.37,NW,310,0.0,1.0,72,0.00,,,0.00,LWC V2.11 B50,2013-02-01 11:00:00,
2013-02-01 04:05:00,26.6,18.8,30.37,West,281,0.0,3.0,72,0.00,,,0.00,LWC V2.11 B50,2013-02-01 11:05:00,
2013-02-01 04:10:00,27.2,19.1,30.37,NNW,327,0.0,2.0,71,0.00,,,0.00,LWC V2.11 B50,2013-02-01 11:10:00,
2013-02-01 04:15:00,27.4,18.9,30.37,NNW,331,0.0,0.0,70,0.00,,,0.00,LWC V2.11 B50,2013-02-01 11:15:00,
2013-02-01 04:20:00,27.2,18.7,30.37,NNW,331,0.0,0.0,70,0.00,,,0.00,LWC V2.11 B50,2013-02-01 11:20:00,
2013-02-01 04:25:00,27.0,18.5,30.36,NNW,332,0.0,0.0,70,0.00,,,0.00,LWC V2.11 B50,2013-02-01 11:25:00,
2013-02-01 04:30:00,26.8,18.4,30.36,NNW,332,0.0,0.0,70,0.00,,,0.00,LWC V2.11 B50,2013-02-01 11:30:00,
2013-02-01 04:35:00,26.7,18.6,30.36,NNW,332,0.0,0.0,71,0.00,,,0.00,LWC V2.11 B50,2013-02-01 11:35:00,
2013-02-01 04:40:00,26.6,18.8,30.36,NW,307,0.0,1.0,72,0.00,,,0.00,LWC V2.11 B50,2013-02-01 11:40:00,
2013-02-01 04:45:00,27.0,18.9,30.36,WNW,299,0.0,0.0,71,0.00,,,0.00,LWC V2.11 B50,2013-02-01 11:45:00,
2013-02-01 04:50:00,27.1,19.0,30.36,WNW,299,0.0,0.0,71,0.00,,,0.00,LWC V2.11 B50,2013-02-01 11:50:00,
2013-02-01 04:55:00,27.0,18.5,30.36,WNW,299,0.0,0.0,70,0.00,,,0.00,LWC V2.11 B50,2013-02-01 11:55:00,
2013-02-01 05:00:00,26.8,18.4,30.36,WNW,299,0.0,0.0,70,0.00,,,0.00,LWC V2.11 B50,2013-02-01 12:00:00,
2013-02-01 05:05:00,26.6,18.5,30.36,WNW,299,0.0,0.0,71,0.00,,,0.00,LWC V2.11 B50,2013-02-01 12:05:00,
2013-02-01 05:10:00,26.4,18.3,30.36,WNW,299,0.0,0.0,71,0.00,,,0.00,LWC V2.11 B50,2013-02-01 12:10:00,
2013-02-01 05:15:00,26.3,18.2,30.36,WNW,299,0.0,0.0,71,0.00,,,0.00,LWC V2.11 B50,2013-02-01 12:15:00,
2013-02-01 05:20:00,26.2,18.1,30.36,WNW,299,0.0,0.0,71,0.00,,,0.00,LWC V2.11 B50,2013-02-01 12:20:00,
2013-02-01 05:25:00,25.8,17.4,30.36,WNW,299,0.0,0.0,70,0.00,,,0.00,LWC V2.11 B50,2013-02-01 12:25:00,
2013-02-01 05:30:00,25.5,17.4,30.36,WNW,299,0.0,0.0,71,0.00,,,0.00,LWC V2.11 B50,2013-02-01 12:30:00,
2013-02-01 05:35:00,25.3,17.9,30.36,NW,308,1.0,2.0,73,0.00,,,0.00,LWC V2.11 B50,2013-02-01 12:35:00,
2013-02-01 05:40:00,25.5,18.1,30.36,NW,318,1.0,1.0,73,0.00,,,0.00,LWC V2.11 B50,2013-02-01 12:40:00,
2013-02-01 05:45:00,25.8,18.4,30.36,NW,311,0.0,1.0,73,0.00,,,0.00,LWC V2.11 B50,2013-02-01 12:45:00,
2013-02-01 05:50:00,25.9,18.5,30.36,NW,312,0.0,0.0,73,0.00,,,0.00,LWC V2.11 B50,2013-02-01 12:50:00,
2013-02-01 05:55:00,26.2,18.7,30.36,NW,312,0.0,0.0,73,0.00,,,0.00,LWC V2.11 B50,2013-02-01 12:55:00,
2013-02-01 06:00:00,26.3,18.5,30.36,NW,312,0.0,0.0,72,0.00,,,0.00,LWC V2.11 B50,2013-02-01 13:00:00,
2013-02-01 06:05:00,26.3,18.2,30.36,NW,313,0.0,1.0,71,0.00,,,0.00,LWC V2.11 B50,2013-02-01 13:05:00,
2013-02-01 06:10:00,26.2,18.1,30.36,NW,313,0.0,0.0,71,0.00,,,0.00,LWC V2.11 B50,2013-02-01 13:10:00,
2013-02-01 06:15:00,26.2,18.4,30.36,NW,313,0.0,1.0,72,0.00,,,0.00,LWC V2.11 B50,2013-02-01 13:15:00,
2013-02-01 06:20:00,26.2,18.1,30.36,NW,313,0.0,0.0,71,0.00,,,0.00,LWC V2.11 B50,2013-02-01 13:20:00,
2013-02-01 06:25:00,26.1,18.0,30.36,NW,313,0.0,0.0,71,0.00,,,0.00,LWC V2.11 B50,2013-02-01 13:25:00,
2013-02-01 06:30:00,26.0,17.9,30.36,NW,313,0.0,0.0,71,0.00,,,0.00,LWC V2.11 B50,2013-02-01 13:30:00,
2013-02-01 06:35:00,25.7,17.6,30.36,NW,313,0.0,0.0,71,0.00,,,0.00,LWC V2.11 B50,2013-02-01 13:35:00,
2013-02-01 06:40:00,25.3,17.2,30.36,NW,313,0.0,0.0,71,0.00,,,0.00,LWC V2.11 B50,2013-02-01 13:40:00,
2013-02-01 06:45:00,24.9,17.2,30.36,WNW,303,0.0,1.0,72,0.00,,,0.00,LWC V2.11 B50,2013-02-01 13:45:00,
2013-02-01 06:50:00,24.6,17.2,30.36,WNW,294,0.0,0.0,73,0.00,,,0.00,LWC V2.11 B50,2013-02-01 13:50:00,
2013-02-01 06:55:00,24.6,17.2,30.37,WNW,295,0.0,1.0,73,0.00,,,0.00,LWC V2.11 B50,2013-02-01 13:55:00,
2013-02-01 07:00:00,24.5,17.1,30.37,WNW,295,0.0,0.0,73,0.00,,,0.00,LWC V2.11 B50,2013-02-01 14:00:00,
2013-02-01 07:05:00,24.5,17.4,30.37,WNW,295,0.0,0.0,74,0.00,,,0.00,LWC V2.11 B50,2013-02-01 14:05:00,
2013-02-01 07:10:00,24.5,17.4,30.36,WNW,295,0.0,0.0,74,0.00,,,0.00,LWC V2.11 B50,2013-02-01 14:10:00,
2013-02-01 07:15:00,24.5,17.4,30.37,WNW,295,0.0,0.0,74,0.00,,,0.00,LWC V2.11 B50,2013-02-01 14:15:00,
2013-02-01 07:20:00,24.5,17.4,30.37,WNW,295,0.0,0.0,74,0.00,,,0.00,LWC V2.11 B50,2013-02-01 14:20:00,
2013-02-01 07:25:00,24.3,17.2,30.37,WNW,295,0.0,0.0,74,0.00,,,0.00,LWC V2.11 B50,2013-02-01 14:25:00,
2013-02-01 07:30:00,24.4,17.6,30.37,WNW,295,0.0,0.0,75,0.00,,,0.00,LWC V2.11 B50,2013-02-01 14:30:00,
2013-02-01 07:35:00,24.7,18.2,30.36,WNW,295,0.0,0.0,76,0.00,,,0.00,LWC V2.11 B50,2013-02-01 14:35:00,
2013-02-01 07:40:00,25.0,18.2,30.37,WNW,295,0.0,0.0,75,0.00,,,0.00,LWC V2.11 B50,2013-02-01 14:40:00,
2013-02-01 07:45:00,25.5,18.7,30.36,WNW,295,0.0,0.0,75,0.00,,,0.00,LWC V2.11 B50,2013-02-01 14:45:00,
2013-02-01 07:50:00,26.0,19.2,30.37,WNW,295,0.0,0.0,75,0.00,,,0.00,LWC V2.11 B50,2013-02-01 14:50:00,
2013-02-01 07:55:00,26.5,19.7,30.37,WNW,295,0.0,0.0,75,0.00,,,0.00,LWC V2.11 B50,2013-02-01 14:55:00,
2013-02-01 08:00:00,27.3,20.1,30.37,WNW,295,0.0,0.0,74,0.00,,,0.00,LWC V2.11 B50,2013-02-01 15:00:00,
2013-02-01 08:05:00,27.9,20.4,30.37,WNW,295,0.0,0.0,73,0.00,,,0.00,LWC V2.11 B50,2013-02-01 15:05:00,
2013-02-01 08:10:00,28.5,20.6,30.37,WNW,295,0.0,0.0,72,0.00,,,0.00,LWC V2.11 B50,2013-02-01 15:10:00,
2013-02-01 08:15:00,29.1,20.9,30.37,WNW,295,0.0,0.0,71,0.00,,,0.00,LWC V2.11 B50,2013-02-01 15:15:00,
2013-02-01 08:20:00,29.8,21.6,30.37,WNW,295,0.0,0.0,71,0.00,,,0.00,LWC V2.11 B50,2013-02-01 15:20:00,
2013-02-01 08:25:00,30.4,21.8,30.37,WNW,295,0.0,0.0,70,0.00,,,0.00,LWC V2.11 B50,2013-02-01 15:25:00,
2013-02-01 08:30:00,31.1,21.8,30.37,WNW,295,0.0,0.0,68,0.00,,,0.00,LWC V2.11 B50,2013-02-01 15:30:00,
2013-02-01 08:35:00,31.9,22.2,30.37,WNW,295,0.0,0.0,67,0.00,,,0.00,LWC V2.11 B50,2013-02-01 15:35:00,
2013-02-01 08:40:00,32.6,22.2,30.37,WNW,295,0.0,0.0,65,0.00,,,0.00,LWC V2.11 B50,2013-02-01 15:40:00,
2013-02-01 08:45:00,33.3,22.5,30.37,WNW,296,0.0,0.0,64,0.00,,,0.00,LWC V2.11 B50,2013-02-01 15:45:00,
2013-02-01 08:50:00,33.9,22.3,30.37,WNW,296,0.0,1.0,62,0.00,,,0.00,LWC V2.11 B50,2013-02-01 15:50:00,
2013-02-01 08:55:00,34.4,22.4,30.37,WNW,296,0.0,0.0,61,0.00,,,0.00,LWC V2.11 B50,2013-02-01 15:55:00,
2013-02-01 09:00:00,35.0,22.5,30.37,WNW,296,0.0,0.0,60,0.00,,,0.00,LWC V2.11 B50,2013-02-01 16:00:00,
2013-02-01 09:05:00,36.0,22.7,30.38,WNW,296,0.0,0.0,58,0.00,,,0.00,LWC V2.11 B50,2013-02-01 16:05:00,
2013-02-01 09:10:00,37.1,22.9,30.38,SW,236,0.0,0.0,56,0.00,,,0.00,LWC V2.11 B50,2013-02-01 16:10:00,
2013-02-01 09:15:00,37.9,23.2,30.38,SW,236,0.0,0.0,55,0.00,,,0.00,LWC V2.11 B50,2013-02-01 16:15:00,
2013-02-01 09:20:00,38.8,22.7,30.38,South,188,0.0,0.0,52,0.00,,,0.00,LWC V2.11 B50,2013-02-01 16:20:00,
2013-02-01 09:25:00,39.4,23.3,30.38,South,189,0.0,1.0,52,0.00,,,0.00,LWC V2.11 B50,2013-02-01 16:25:00,
2013-02-01 09:30:00,39.7,23.1,30.38,South,189,0.0,0.0,51,0.00,,,0.00,LWC V2.11 B50,2013-02-01 16:30:00,
2013-02-01 09:35:00,40.2,23.1,30.38,SSE,166,2.0,3.0,50,0.00,,,0.00,LWC V2.11 B50,2013-02-01 16:35:00,
2013-02-01 09:40:00,40.4,22.8,30.38,South,191,0.0,2.0,49,0.00,,,0.00,LWC V2.11 B50,2013-02-01 16:40:00,
2013-02-01 09:45:00,40.7,23.0,30.38,SE,124,1.0,1.0,49,0.00,,,0.00,LWC V2.11 B50,2013-02-01 16:45:00,
2013-02-01 09:50:00,41.1,23.4,30.39,SE,125,0.0,2.0,49,0.00,,,0.00,LWC V2.11 B50,2013-02-01 16:50:00,
2013-02-01 09:55:00,41.3,23.1,30.39,SSE,160,2.0,3.0,48,0.00,,,0.00,LWC V2.11 B50,2013-02-01 16:55:00,
2013-02-01 10:00:00,41.5,23.8,30.39,SSE,153,0.0,1.0,49,0.00,,,0.00,LWC V2.11 B50,2013-02-01 17:00:00,
2013-02-01 10:05:00,42.2,23.9,30.39,SSE,155,0.0,2.0,48,0.00,,,0.00,LWC V2.11 B50,2013-02-01 17:05:00,
2013-02-01 10:10:00,42.7,23.4,30.39,SSE,157,0.0,1.0,46,0.00,,,0.00,LWC V2.11 B50,2013-02-01 17:10:00,
2013-02-01 10:15:00,43.1,23.7,30.38,SSE,157,0.0,1.0,46,0.00,,,0.00,LWC V2.11 B50,2013-02-01 17:15:00,
2013-02-01 10:20:00,43.6,23.7,30.38,ESE,123,0.0,1.0,45,0.00,,,0.00,LWC V2.11 B50,2013-02-01 17:20:00,
2013-02-01 10:25:00,44.0,23.5,30.38,SSE,159,0.0,3.0,44,0.00,,,0.00,LWC V2.11 B50,2013-02-01 17:25:00,
2013-02-01 10:30:00,44.1,23.6,30.38,SE,140,0.0,3.0,44,0.00,,,0.00,LWC V2.11 B50,2013-02-01 17:30:00,
2013-02-01 10:35:00,44.5,23.4,30.38,ESE,122,0.0,1.0,43,0.00,,,0.00,LWC V2.11 B50,2013-02-01 17:35:00,
2013-02-01 10:40:00,44.8,23.7,30.38,ESE,117,0.0,1.0,43,0.00,,,0.00,LWC V2.11 B50,2013-02-01 17:40:00,
2013-02-01 10:45:00,45.0,23.9,30.38,SE,125,0.0,0.0,43,0.00,,,0.00,LWC V2.11 B50,2013-02-01 17:45:00,
2013-02-01 10:50:00,45.4,23.7,30.37,SSE,150,2.0,4.0,42,0.00,,,0.00,LWC V2.11 B50,2013-02-01 17:50:00,
2013-02-01 10:55:00,45.5,23.8,30.37,SSE,164,0.0,3.0,42,0.00,,,0.00,LWC V2.11 B50,2013-02-01 17:55:00,
2013-02-01 11:00:00,45.8,24.0,30.37,SSW,200,2.0,5.0,42,0.00,,,0.00,LWC V2.11 B50,2013-02-01 18:00:00,
2013-02-01 11:05:00,46.1,23.7,30.37,SSW,202,2.0,3.0,41,0.00,,,0.00,LWC V2.11 B50,2013-02-01 18:05:00,
2013-02-01 11:10:00,46.5,24.1,30.37,SE,135,3.0,5.0,41,0.00,,,0.00,LWC V2.11 B50,2013-02-01 18:10:00,
2013-02-01 11:15:00,46.7,24.3,30.36,SSE,161,0.0,3.0,41,0.00,,,0.00,LWC V2.11 B50,2013-02-01 18:15:00,
2013-02-01 11:20:00,47.0,23.9,30.36,SE,131,1.0,4.0,40,0.00,,,0.00,LWC V2.11 B50,2013-02-01 18:20:00,
2013-02-01 11:25:00,47.0,24.5,30.35,SSW,206,1.0,3.0,41,0.00,,,0.00,LWC V2.11 B50,2013-02-01 18:25:00,
2013-02-01 11:30:00,47.4,24.3,30.35,South,169,2.0,3.0,40,0.00,,,0.00,LWC V2.11 B50,2013-02-01 18:30:00,
2013-02-01 11:35:00,47.9,24.8,30.35,SSW,211,3.0,3.0,40,0.00,,,0.00,LWC V2.11 B50,2013-02-01 18:35:00,
2013-02-01 11:40:00,48.5,24.7,30.34,South,186,3.0,4.0,39,0.00,,,0.00,LWC V2.11 B50,2013-02-01 18:40:00,
2013-02-01 11:45:00,48.7,24.2,30.34,South,184,3.0,5.0,38,0.00,,,0.00,LWC V2.11 B50,2013-02-01 18:45:00,
2013-02-01 11:50:00,48.5,23.4,30.34,SSE,155,3.0,6.0,37,0.00,,,0.00,LWC V2.11 B50,2013-02-01 18:50:00,
2013-02-01 11:55:00,48.6,24.2,30.33,SW,220,0.0,2.0,38,0.00,,,0.00,LWC V2.11 B50,2013-02-01 18:55:00,
2013-02-01 12:00:00,49.3,24.1,30.33,South,175,1.0,6.0,37,0.00,,,0.00,LWC V2.11 B50,2013-02-01 19:00:00,
2013-02-01 12:05:00,50.1,24.2,30.32,SSW,205,0.0,1.0,36,0.00,,,0.00,LWC V2.11 B50,2013-02-01 19:05:00,
2013-02-01 12:10:00,50.7,24.1,30.32,West,261,0.0,1.0,35,0.00,,,0.00,LWC V2.11 B50,2013-02-01 19:10:00,
2013-02-01 12:15:00,51.2,24.5,30.31,SSE,160,0.0,1.0,35,0.00,,,0.00,LWC V2.11 B50,2013-02-01 19:15:00,
2013-02-01 12:20:00,51.2,23.8,30.31,South,169,0.0,7.0,34,0.00,,,0.00,LWC V2.11 B50,2013-02-01 19:20:00,
2013-02-01 12:25:00,51.3,23.9,30.30,SSW,207,1.0,4.0,34,0.00,,,0.00,LWC V2.11 B50,2013-02-01 19:25:00,
2013-02-01 12:30:00,51.7,24.2,30.30,SSW,202,1.0,4.0,34,0.00,,,0.00,LWC V2.11 B50,2013-02-01 19:30:00,
2013-02-01 12:35:00,52.2,24.0,30.30,SSW,206,1.0,3.0,33,0.00,,,0.00,LWC V2.11 B50,2013-02-01 19:35:00,
2013-02-01 12:40:00,52.8,23.8,30.29,SSW,208,2.0,2.0,32,0.00,,,0.00,LWC V2.11 B50,2013-02-01 19:40:00,
2013-02-01 12:45:00,53.2,23.4,30.29,SSE,150,4.0,4.0,31,0.00,,,0.00,LWC V2.11 B50,2013-02-01 19:45:00,
2013-02-01 12:50:00,53.5,24.4,30.28,SSW,196,3.0,6.0,32,0.00,,,0.00,LWC V2.11 B50,2013-02-01 19:50:00,
2013-02-01 12:55:00,53.5,23.6,30.28,SSE,165,2.0,7.0,31,0.00,,,0.00,LWC V2.11 B50,2013-02-01 19:55:00,
2013-02-01 13:00:00,53.4,23.5,30.28,SSW,207,0.0,0.0,31,0.00,,,0.00,LWC V2.11 B50,2013-02-01 20:00:00,
2013-02-01 13:05:00,53.7,23.8,30.28,South,171,2.0,3.0,31,0.00,,,0.00,LWC V2.11 B50,2013-02-01 20:05:00,
2013-02-01 13:10:00,53.9,23.2,30.27,South,180,0.0,5.0,30,0.00,,,0.00,LWC V2.11 B50,2013-02-01 20:10:00,
2013-02-01 13:15:00,54.0,23.3,30.27,South,184,2.0,2.0,30,0.00,,,0.00,LWC V2.11 B50,2013-02-01 20:15:00,
2013-02-01 13:20:00,54.4,22.8,30.27,SE,132,1.0,3.0,29,0.00,,,0.00,LWC V2.11 B50,2013-02-01 20:20:00,
2013-02-01 13:25:00,54.7,23.1,30.27,ESE,123,2.0,5.0,29,0.00,,,0.00,LWC V2.11 B50,2013-02-01 20:25:00,
2013-02-01 13:30:00,54.7,23.1,30.27,SSE,154,4.0,4.0,29,0.00,,,0.00,LWC V2.11 B50,2013-02-01 20:30:00,
2013-02-01 13:35:00,55.1,22.6,30.26,SSW,212,2.0,3.0,28,0.00,,,0.00,LWC V2.11 B50,2013-02-01 20:35:00,
2013-02-01 13:40:00,55.7,22.2,30.26,ESE,113,0.0,2.0,27,0.00,,,0.00,LWC V2.11 B50,2013-02-01 20:40:00,
2013-02-01 13:45:00,56.3,22.8,30.26,SSW,192,0.0,1.0,27,0.00,,,0.00,LWC V2.11 B50,2013-02-01 20:45:00,
2013-02-01 13:50:00,56.9,22.4,30.25,East,101,0.0,3.0,26,0.00,,,0.00,LWC V2.11 B50,2013-02-01 20:50:00,
2013-02-01 13:55:00,57.1,20.7,30.26,West,279,3.0,5.0,24,0.00,,,0.00,LWC V2.11 B50,2013-02-01 20:55:00,
2013-02-01 14:00:00,56.9,21.5,30.26,WNW,298,1.0,4.0,25,0.00,,,0.00,LWC V2.11 B50,2013-02-01 21:00:00,
2013-02-01 14:05:00,56.6,20.2,30.25,NW,309,3.0,9.0,24,0.00,,,0.00,LWC V2.11 B50,2013-02-01 21:05:00,
2013-02-01 14:10:00,56.5,21.1,30.26,WNW,302,4.0,6.0,25,0.00,,,0.00,LWC V2.11 B50,2013-02-01 21:10:00,
2013-02-01 14:15:00,56.7,21.3,30.26,NNE,12,1.0,4.0,25,0.00,,,0.00,LWC V2.11 B50,2013-02-01 21:15:00,
2013-02-01 14:20:00,57.1,20.7,30.26,NW,319,0.0,1.0,24,0.00,,,0.00,LWC V2.11 B50,2013-02-01 21:20:00,
2013-02-01 14:25:00,57.2,20.7,30.26,WNW,296,5.0,7.0,24,0.00,,,0.00,LWC V2.11 B50,2013-02-01 21:25:00,
2013-02-01 14:30:00,57.2,20.7,30.25,WNW,288,2.0,3.0,24,0.00,,,0.00,LWC V2.11 B50,2013-02-01 21:30:00,
2013-02-01 14:35:00,57.1,20.7,30.25,NW,304,0.0,1.0,24,0.00,,,0.00,LWC V2.11 B50,2013-02-01 21:35:00,
2013-02-01 14:40:00,57.4,20.9,30.26,NW,308,2.0,6.0,24,0.00,,,0.00,LWC V2.11 B50,2013-02-01 21:40:00,
2013-02-01 14:45:00,57.3,20.8,30.26,WNW,302,4.0,6.0,24,0.00,,,0.00,LWC V2.11 B50,2013-02-01 21:45:00,
2013-02-01 14:50:00,56.8,21.4,30.26,North,355,1.0,2.0,25,0.00,,,0.00,LWC V2.11 B50,2013-02-01 21:50:00,
2013-02-01 14:55:00,56.7,21.3,30.26,NW,307,0.0,0.0,25,0.00,,,0.00,LWC V2.11 B50,2013-02-01 21:55:00,
2013-02-01 15:00:00,56.9,21.5,30.25,South,190,2.0,6.0,25,0.00,,,0.00,LWC V2.11 B50,2013-02-01 22:00:00,
2013-02-01 15:05:00,56.9,22.4,30.25,ESE,103,2.0,3.0,26,0.00,,,0.00,LWC V2.11 B50,2013-02-01 22:05:00,
2013-02-01 15:10:00,56.8,22.3,30.25,SSE,161,0.0,5.0,26,0.00,,,0.00,LWC V2.11 B50,2013-02-01 22:10:00,
2013-02-01 15:15:00,56.5,22.0,30.25,SE,141,1.0,1.0,26,0.00,,,0.00,LWC V2.11 B50,2013-02-01 22:15:00,
2013-02-01 15:20:00,56.4,22.0,30.25,South,188,0.0,4.0,26,0.00,,,0.00,LWC V2.11 B50,2013-02-01 22:20:00,
2013-02-01 15:25:00,56.3,20.9,30.25,East,101,3.0,3.0,25,0.00,,,0.00,LWC V2.11 B50,2013-02-01 22:25:00,
2013-02-01 15:30:00,56.1,21.7,30.25,NE,34,0.0,1.0,26,0.00,,,0.00,LWC V2.11 B50,2013-02-01 22:30:00,
2013-02-01 15:35:00,56.1,21.7,30.25,ESE,106,1.0,2.0,26,0.00,,,0.00,LWC V2.11 B50,2013-02-01 22:35:00,
2013-02-01 15:40:00,56.2,20.9,30.25,SSE,151,0.0,1.0,25,0.00,,,0.00,LWC V2.11 B50,2013-02-01 22:40:00,
2013-02-01 15:45:00,56.3,20.9,30.25,SSE,154,1.0,1.0,25,0.00,,,0.00,LWC V2.11 B50,2013-02-01 22:45:00,
2013-02-01 15:50:00,56.3,20.9,30.25,SSE,158,0.0,1.0,25,0.00,,,0.00,LWC V2.11 B50,2013-02-01 22:50:00,
2013-02-01 15:55:00,56.3,20.9,30.25,SSE,161,0.0,0.0,25,0.00,,,0.00,LWC V2.11 B50,2013-02-01 22:55:00,
2013-02-01 16:00:00,56.3,20.9,30.25,SSE,161,0.0,0.0,25,0.00,,,0.00,LWC V2.11 B50,2013-02-01 23:00:00,
2013-02-01 16:05:00,56.2,19.9,30.25,NW,313,0.0,0.0,24,0.00,,,0.00,LWC V2.11 B50,2013-02-01 23:05:00,
2013-02-01 16:10:00,56.2,17.9,30.25,NW,326,4.0,5.0,22,0.00,,,0.00,LWC V2.11 B50,2013-02-01 23:10:00,
2013-02-01 16:15:00,56.3,15.8,30.25,NNE,12,3.0,7.0,20,0.00,,,0.00,LWC V2.11 B50,2013-02-01 23:15:00,
2013-02-01 16:20:00,56.4,17.0,30.26,NW,324,2.0,4.0,21,0.00,,,0.00,LWC V2.11 B50,2013-02-01 23:20:00,
2013-02-01 16:25:00,56.3,16.9,30.26,NW,309,1.0,4.0,21,0.00,,,0.00,LWC V2.11 B50,2013-02-01 23:25:00,
2013-02-01 16:30:00,56.1,16.7,30.26,NW,319,4.0,6.0,21,0.00,,,0.00,LWC V2.11 B50,2013-02-01 23:30:00,
2013-02-01 16:35:00,56.0,16.6,30.26,SW,229,0.0,3.0,21,0.00,,,0.00,LWC V2.11 B50,2013-02-01 23:35:00,
2013-02-01 16:40:00,55.8,15.3,30.26,North,355,2.0,4.0,20,0.00,,,0.00,LWC V2.11 B50,2013-02-01 23:40:00,
2013-02-01 16:45:00,55.5,16.2,30.26,NW,319,6.0,6.0,21,0.00,,,0.00,LWC V2.11 B50,2013-02-01 23:45:00,
2013-02-01 16:50:00,55.3,16.0,30.26,NNW,344,1.0,2.0,21,0.00,,,0.00,LWC V2.11 B50,2013-02-01 23:50:00,
2013-02-01 16:55:00,55.0,16.9,30.26,NNW,346,0.0,2.0,22,0.00,,,0.00,LWC V2.11 B50,2013-02-01 23:55:00,
2013-02-01 17:00:00,54.7,16.6,30.26,WNW,292,0.0,2.0,22,0.00,,,0.00,LWC V2.11 B50,2013-02-02 00:00:00,
2013-02-01 17:05:00,54.4,17.4,30.26,NW,313,0.0,2.0,23,0.00,,,0.00,LWC V2.11 B50,2013-02-02 00:05:00,
2013-02-01 17:10:00,54.1,18.1,30.26,West,276,1.0,4.0,24,0.00,,,0.00,LWC V2.11 B50,2013-02-02 00:10:00,
2013-02-01 17:15:00,53.7,17.8,30.26,NW,319,0.0,3.0,24,0.00,,,0.00,LWC V2.11 B50,2013-02-02 00:15:00,
2013-02-01 17:20:00,53.5,18.6,30.26,NNW,343,0.0,1.0,25,0.00,,,0.00,LWC V2.11 B50,2013-02-02 00:20:00,
2013-02-01 17:25:00,53.2,18.3,30.26,NE,34,2.0,4.0,25,0.00,,,0.00,LWC V2.11 B50,2013-02-02 00:25:00,
2013-02-01 17:30:00,52.8,18.0,30.27,NNE,30,0.0,3.0,25,0.00,,,0.00,LWC V2.11 B50,2013-02-02 00:30:00,
2013-02-01 17:35:00,52.4,17.6,30.27,NNE,30,1.0,3.0,25,0.00,,,0.00,LWC V2.11 B50,2013-02-02 00:35:00,
2013-02-01 17:40:00,51.9,18.1,30.27,NW,324,1.0,8.0,26,0.00,,,0.00,LWC V2.11 B50,2013-02-02 00:40:00,
2013-02-01 17:45:00,51.4,17.7,30.27,WNW,299,2.0,6.0,26,0.00,,,0.00,LWC V2.11 B50,2013-02-02 00:45:00,
2013-02-01 17:50:00,50.9,17.3,30.27,North,0,2.0,10.0,26,0.00,,,0.00,LWC V2.11 B50,2013-02-02 00:50:00,
2013-02-01 17:55:00,50.6,17.9,30.27,NE,40,2.0,6.0,27,0.00,,,0.00,LWC V2.11 B50,2013-02-02 00:55:00,
2013-02-01 18:00:00,50.4,17.7,30.28,ENE,71,3.0,9.0,27,0.00,,,0.00,LWC V2.11 B50,2013-02-02 01:00:00,
2013-02-01 18:05:00,50.1,17.4,30.28,NW,325,1.0,5.0,27,0.00,,,0.00,LWC V2.11 B50,2013-02-02 01:05:00,
2013-02-01 18:10:00,49.7,17.9,30.28,WNW,294,1.0,8.0,28,0.00,,,0.00,LWC V2.11 B50,2013-02-02 01:10:00,
2013-02-01 18:15:00,49.4,17.7,30.29,NNW,338,0.0,3.0,28,0.00,,,0.00,LWC V2.11 B50,2013-02-02 01:15:00,
2013-02-01 18:20:00,49.0,18.1,30.29,NNE,26,0.0,5.0,29,0.00,,,0.00,LWC V2.11 B50,2013-02-02 01:20:00,
2013-02-01 18:25:00,48.7,17.9,30.29,North,5,0.0,1.0,29,0.00,,,0.00,LWC V2.11 B50,2013-02-02 01:25:00,
2013-02-01 18:30:00,48.3,18.3,30.29,North,355,0.0,7.0,30,0.00,,,0.00,LWC V2.11 B50,2013-02-02 01:30:00,
2013-02-01 18:35:00,48.1,18.2,30.29,East,89,0.0,5.0,30,0.00,,,0.00,LWC V2.11 B50,2013-02-02 01:35:00,
2013-02-01 18:40:00,48.0,18.1,30.30,North,355,0.0,4.0,30,0.00,,,0.00,LWC V2.11 B50,2013-02-02 01:40:00,
2013-02-01 18:45:00,47.9,18.7,30.30,North,355,3.0,5.0,31,0.00,,,0.00,LWC V2.11 B50,2013-02-02 01:45:00,
2013-02-01 18:50:00,47.8,18.7,30.30,NNW,347,5.0,5.0,31,0.00,,,0.00,LWC V2.11 B50,2013-02-02 01:50:00,
2013-02-01 18:55:00,47.8,18.7,30.30,NE,53,0.0,3.0,31,0.00,,,0.00,LWC V2.11 B50,2013-02-02 01:55:00,
2013-02-01 19:00:00,47.8,18.7,30.31,NW,318,0.0,4.0,31,0.00,,,0.00,LWC V2.11 B50,2013-02-02 02:00:00,
2013-02-01 19:05:00,47.9,19.5,30.31,NNE,13,0.0,8.0,32,0.00,,,0.00,LWC V2.11 B50,2013-02-02 02:05:00,
2013-02-01 19:10:00,47.9,19.5,30.31,NW,325,1.0,5.0,32,0.00,,,0.00,LWC V2.11 B50,2013-02-02 02:10:00,
2013-02-01 19:15:00,47.8,19.4,30.32,NW,325,0.0,6.0,32,0.00,,,0.00,LWC V2.11 B50,2013-02-02 02:15:00,
2013-02-01 19:20:00,47.6,19.9,30.32,NNE,30,0.0,2.0,33,0.00,,,0.00,LWC V2.11 B50,2013-02-02 02:20:00,
2013-02-01 19:25:00,47.4,19.8,30.32,NW,321,2.0,3.0,33,0.00,,,0.00,LWC V2.11 B50,2013-02-02 02:25:00,
2013-02-01 19:30:00,47.1,20.2,30.32,NNE,19,0.0,1.0,34,0.00,,,0.00,LWC V2.11 B50,2013-02-02 02:30:00,
2013-02-01 19:35:00,46.7,19.8,30.32,NE,50,1.0,1.0,34,0.00,,,0.00,LWC V2.11 B50,2013-02-02 02:35:00,
2013-02-01 19:40:00,46.5,20.3,30.32,North,11,0.0,1.0,35,0.00,,,0.00,LWC V2.11 B50,2013-02-02 02:40:00,
2013-02-01 19:45:00,46.4,20.3,30.32,NNE,17,1.0,1.0,35,0.00,,,0.00,LWC V2.11 B50,2013-02-02 02:45:00,
2013-02-01 19:50:00,46.2,20.7,30.32,North,0,0.0,0.0,36,0.00,,,0.00,LWC V2.11 B50,2013-02-02 02:50:00,
2013-02-01 19:55:00,45.9,20.5,30.33,North,0,0.0,0.0,36,0.00,,,0.00,LWC V2.11 B50,2013-02-02 02:55:00,
2013-02-01 20:00:00,45.4,19.4,30.33,North,0,0.0,0.0,35,0.00,,,0.00,LWC V2.11 B50,2013-02-02 03:00:00,
2013-02-01 20:05:00,44.6,19.3,30.33,North,0,0.0,0.0,36,0.00,,,0.00,LWC V2.11 B50,2013-02-02 03:05:00,
2013-02-01 20:10:00,43.6,19.1,30.33,North,0,0.0,0.0,37,0.00,,,0.00,LWC V2.11 B50,2013-02-02 03:10:00,
2013-02-01 20:15:00,42.7,18.9,30.33,North,0,0.0,0.0,38,0.00,,,0.00,LWC V2.11 B50,2013-02-02 03:15:00,
2013-02-01 20:20:00,42.1,19.5,30.33,North,0,0.0,0.0,40,0.00,,,0.00,LWC V2.11 B50,2013-02-02 03:20:00,
2013-02-01 20:25:00,41.5,19.0,30.33,North,355,0.0,0.0,40,0.00,,,0.00,LWC V2.11 B50,2013-02-02 03:25:00,
2013-02-01 20:30:00,41.0,19.1,30.33,NNW,340,0.0,0.0,41,0.00,,,0.00,LWC V2.11 B50,2013-02-02 03:30:00,
2013-02-01 20:35:00,40.3,19.1,30.33,NW,319,0.0,1.0,42,0.00,,,0.00,LWC V2.11 B50,2013-02-02 03:35:00,
2013-02-01 20:40:00,39.8,19.1,30.34,NW,319,0.0,0.0,43,0.00,,,0.00,LWC V2.11 B50,2013-02-02 03:40:00,
2013-02-01 20:45:00,39.6,19.5,30.34,NW,320,0.0,0.0,44,0.00,,,0.00,LWC V2.11 B50,2013-02-02 03:45:00,
2013-02-01 20:50:00,39.5,19.4,30.34,NW,317,0.0,0.0,44,0.00,,,0.00,LWC V2.11 B50,2013-02-02 03:50:00,
2013-02-01 20:55:00,39.3,19.2,30.34,NW,317,0.0,0.0,44,0.00,,,0.00,LWC V2.11 B50,2013-02-02 03:55:00,
2013-02-01 21:00:00,39.0,19.0,30.35,NW,317,0.0,0.0,44,0.00,,,0.00,LWC V2.11 B50,2013-02-02 04:00:00,
2013-02-01 21:05:00,38.6,18.6,30.35,NW,317,0.0,0.0,44,0.00,,,0.00,LWC V2.11 B50,2013-02-02 04:05:00,
2013-02-01 21:10:00,38.3,18.8,30.35,NW,317,0.0,0.0,45,0.00,,,0.00,LWC V2.11 B50,2013-02-02 04:10:00,
2013-02-01 21:15:00,37.9,19.0,30.35,NW,317,0.0,0.0,46,0.00,,,0.00,LWC V2.11 B50,2013-02-02 04:15:00,
2013-02-01 21:20:00,37.8,19.4,30.35,NW,317,0.0,0.0,47,0.00,,,0.00,LWC V2.11 B50,2013-02-02 04:20:00,
2013-02-01 21:25:00,37.6,19.2,30.36,NW,319,0.0,0.0,47,0.00,,,0.00,LWC V2.11 B50,2013-02-02 04:25:00,
2013-02-01 21:30:00,37.4,19.0,30.36,WNW,288,0.0,1.0,47,0.00,,,0.00,LWC V2.11 B50,2013-02-02 04:30:00,
2013-02-01 21:35:00,37.2,19.3,30.35,WNW,296,0.0,0.0,48,0.00,,,0.00,LWC V2.11 B50,2013-02-02 04:35:00,
2013-02-01 21:40:00,37.1,19.7,30.36,NNW,328,0.0,0.0,49,0.00,,,0.00,LWC V2.11 B50,2013-02-02 04:40:00,
2013-02-01 21:45:00,37.4,20.5,30.36,NNE,26,1.0,2.0,50,0.00,,,0.00,LWC V2.11 B50,2013-02-02 04:45:00,
2013-02-01 21:50:00,37.8,20.8,30.36,NNW,344,0.0,3.0,50,0.00,,,0.00,LWC V2.11 B50,2013-02-02 04:50:00,
2013-02-01 21:55:00,38.2,20.7,30.36,North,10,0.0,4.0,49,0.00,,,0.00,LWC V2.11 B50,2013-02-02 04:55:00,
2013-02-01 22:00:00,38.6,21.6,30.36,NNW,329,0.0,2.0,50,0.00,,,0.00,LWC V2.11 B50,2013-02-02 05:00:00,
2013-02-01 22:05:00,39.0,21.5,30.36,NNW,333,2.0,2.0,49,0.00,,,0.00,LWC V2.11 B50,2013-02-02 05:05:00,
2013-02-01 22:10:00,39.3,21.8,30.36,North,355,1.0,4.0,49,0.00,,,0.00,LWC V2.11 B50,2013-02-02 05:10:00,
2013-02-01 22:15:00,39.5,21.9,30.37,NNW,348,0.0,2.0,49,0.00,,,0.00,LWC V2.11 B50,2013-02-02 05:15:00,
2013-02-01 22:20:00,39.5,21.9,30.37,NW,318,1.0,4.0,49,0.00,,,0.00,LWC V2.11 B50,2013-02-02 05:20:00,
2013-02-01 22:25:00,39.6,22.0,30.37,WNW,289,2.0,2.0,49,0.00,,,0.00,LWC V2.11 B50,2013-02-02 05:25:00,
2013-02-01 22:30:00,39.7,22.1,30.37,NW,315,1.0,4.0,49,0.00,,,0.00,LWC V2.11 B50,2013-02-02 05:30:00,
2013-02-01 22:35:00,39.7,22.1,30.37,West,271,4.0,6.0,49,0.00,,,0.00,LWC V2.11 B50,2013-02-02 05:35:00,
2013-02-01 22:40:00,39.5,21.9,30.37,NW,306,5.0,8.0,49,0.00,,,0.00,LWC V2.11 B50,2013-02-02 05:40:00,
2013-02-01 22:45:00,39.0,21.5,30.37,NW,322,2.0,7.0,49,0.00,,,0.00,LWC V2.11 B50,2013-02-02 05:45:00,
2013-02-01 22:50:00,38.4,21.4,30.37,WNW,300,1.0,6.0,50,0.00,,,0.00,LWC V2.11 B50,2013-02-02 05:50:00,
2013-02-01 22:55:00,38.1,21.6,30.37,NNW,330,1.0,3.0,51,0.00,,,0.00,LWC V2.11 B50,2013-02-02 05:55:00,
2013-02-01 23:00:00,38.0,21.5,30.37,North,9,1.0,7.0,51,0.00,,,0.00,LWC V2.11 B50,2013-02-02 06:00:00,
2013-02-01 23:05:00,38.0,21.5,30.37,NNW,346,2.0,6.0,51,0.00,,,0.00,LWC V2.11 B50,2013-02-02 06:05:00,
2013-02-01 23:10:00,38.0,21.5,30.37,NNW,333,1.0,7.0,51,0.00,,,0.00,LWC V2.11 B50,2013-02-02 06:10:00,
2013-02-01 23:15:00,38.0,21.5,30.37,NNW,329,2.0,5.0,51,0.00,,,0.00,LWC V2.11 B50,2013-02-02 06:15:00,
2013-02-01 23:20:00,38.0,21.5,30.37,NNW,337,3.0,5.0,51,0.00,,,0.00,LWC V2.11 B50,2013-02-02 06:20:00,
2013-02-01 23:25:00,37.8,21.3,30.37,NNE,12,4.0,6.0,51,0.00,,,0.00,LWC V2.11 B50,2013-02-02 06:25:00,
2013-02-01 23:30:00,38.0,21.5,30.37,WNW,300,4.0,7.0,51,0.00,,,0.00,LWC V2.11 B50,2013-02-02 06:30:00,
2013-02-01 23:35:00,37.9,21.4,30.37,NW,310,3.0,5.0,51,0.00,,,0.00,LWC V2.11 B50,2013-02-02 06:35:00,
2013-02-01 23:40:00,37.6,21.1,30.37,WNW,300,3.0,4.0,51,0.00,,,0.00,LWC V2.11 B50,2013-02-02 06:40:00,
2013-02-01 23:44:00,37.1,21.1,30.37,NNW,328,3.0,5.0,52,0.00,,,0.00,LWC V2.11 B50,2013-02-02 06:44:00,
2013-02-01 23:49:00,36.9,21.4,30.38,WNW,298,0.0,2.0,53,0.00,,,0.00,LWC V2.11 B50,2013-02-02 06:49:00,
2013-02-01 23:54:00,36.8,21.3,30.38,NW,310,1.0,2.0,53,0.00,,,0.00,LWC V2.11 B50,2013-02-02 06:54:00,
2013-02-01 23:59:00,36.8,21.3,30.38,North,349,0.0,0.0,53,0.00,,,0.00,LWC V2.11 B50,2013-02-02 06:59:00,